الصفحة الرئيسية
METAR-TAF:

METAR-TAF

مطار :

فور دو فرانس, مارتينيك

دائرة عرض: 14-36N, خط طول: 061-00W, ارتفاع: 5 متر

مراقبة الطقس الحالي

تاريخ ووقت الإصدار 39 دقيقة قبل الساعة 10:00UTC
ريح 10 عقدة من الشرق
درجة الحرارة 27°درجة مئوية
الرطوبة 74%
ضغط 1013 hPa
الرؤية 10 كم أو أكثر
غيوم قليلة على ارتفاع 2400 قدم
غيوم مفككة على ارتفاع 3600 قدم
غيوم مفككة على ارتفاع 4700 قدم

METAR: TFFF 141000Z AUTO 10010KT 9999 FEW024 BKN036 BKN047 27/22 Q1013 NOSIG

زمن: 06:39 (10:39 UTC)

توقعات

تاريخ ووقت الإصدار 6ساعات و 39 دقيقة قبل الساعة 04:00UTC
التوقعات صالحة من14 الساعة 06 UTC إلى 15 الساعة 06 UTC
ريح 10 عقدة من الشرق
الرؤية 10 كم أو أكثر
غيوم متفرقة على ارتفاع 1500 قدم
غيوم مفككة على ارتفاع 2600 قدم
مؤقت
من 14 الساعة 06 UTC إلى 14 الساعة 09 UTC
الرؤية: 2000 متر
غيوم مفككة على ارتفاع 1000 قدم, مزنة ركامية.
غيوم مفككة على ارتفاع 1500 قدم, مزن ركامية عمودية.
زخات من المطر

TAF: TFFF 140400Z 1406/1506 09010KT 9999 SCT015 BKN026 TEMPO 1406/1409 2000 SHRA BKN010CB BKN015TCU

أرصاد الطقس والتوقعات من أكثر من 4000 مطار (تقارير الطقس للمطار METAR والتنبؤ بالطقس بالمطارTAF).

المحطات المتاحة هي النقط الصفراء والحمراء على الخريطة.

حرك المؤشر فوق النقطة لمعرفة اسم المحطة.

ثم انقر لمعرفة أرصاد وتوقعات الطقس.

لتغيير الخارطة: اضغط على الأزرار الخضراء مع رمز الصليب الأسود للتكبير. على الزر الأخضر مع شرطة للتصغير، أو على الأسهم الخضراء للخرائط المجاورة.


METAR-TAF: